Terminal Aerodrome Forecast
Issued by NWS

Current Version | Previous Version | Text Only | Print | Product List | Glossary On
Versions: 1 2 3 4 5 6 7 8 9 10 11 12 13 14 15 16 17 18 19 20
000
FTAK31 PAJN 091132
TAFAJN
TAF
PAJN 091132Z 0912/1012 00000KT P6SM FEW180 WS020/03030KT
     FM091800 08006G19KT P6SM SKC WS020/04035KT=

USA.gov is the U.S. government's official web portal to all federal, state and local government web resources and services.